Bloomington, IN (47401)

5:28 PM EDT on August 24, 2016 (GMT -0400)
Johnson Turtle Field | | Change Station
Active Advisory: Tornado Watch

Elev 686 ft 39.12 °N, 86.51 °W | Updated 12 minutes ago

Overcast
Overcast
84.3 °F
Feels Like 93 °F
N
2.0
Wind Variable Wind from SSW
Gusts 12.0 mph

Today
High -- | Low -- °F
--% Chance of Precip.
Yesterday
High -- | Low -- °F
Precip. -- in
Pressure 30.03 in
Visibility 9.0 miles
Clouds Few 5500 ft
Scattered Clouds 8000 ft
Scattered Clouds 11000 ft
Heat Index 93 °F
Dew Point 76 °F
Humidity 75%
Rainfall 0.00 in
Snow Depth Not available.
7:07 AM 8:27 PM
Waning Gibbous, 53% visible
METAR KBMG 242053Z 23008KT 9SM -TSRA FEW055 SCT080 SCT110 28/23 A3005 RMK AO2 LTG DSNT N AND W RAB52 TSB47 SLP167 P0000 60000 T02830228 55009
Pressure 30.03 in
Visibility 9.0 miles
Clouds Few 5500 ft
Scattered Clouds 8000 ft
Scattered Clouds 11000 ft
Heat Index 93 °F
Dew Point 76 °F
Humidity 75%
Rainfall 0.00 in
Snow Depth Not available.
7:07 AM 8:27 PM
Waning Gibbous, 53% visible
METAR KBMG 242053Z 23008KT 9SM -TSRA FEW055 SCT080 SCT110 28/23 A3005 RMK AO2 LTG DSNT N AND W RAB52 TSB47 SLP167 P0000 60000 T02830228 55009

10-Day Weather Forecast

Almanac

Astronomy

Aug. 24, 2016 Rise Set
Actual Time
Civil Twilight
Nautical Twilight
Astronomical Twilight
Moon
Length of Visible Light
Length of Day
Tomorrow will be .
, % of the Moon is Illuminated

Today's Extremes

State Highs State Lows

Community

WunderPhotos

Upload Photos

1,934,719 photos uploaded!

WunderBlog® & News

Nearby

Air Quality

  Air Quality AQ Index Pollutant
Not available.

Snow Depth

Station Depth Elevation

Earthquake Activity

City Distance Mag. Time & Date
Minimum magnitude displayed is 2.5.

Coastal Water Temperatures

Place Temperature

Stations

Nearby Weather Stations

Station Location Temp. Windchill Dew Point Humidity Wind Precip. Elev Updated Type
                   

Watches & Warnings

Tornado Watch
Issued: 5:24 PM EDT Aug. 24, 2016 – National Weather Service

Tornado Watch 454 remains in effect until 900 PM EDT for the
following locations


In
. Indiana counties included are

Adams Bartholomew Blackford
Boone Brown Carroll
Cass Clinton Decatur
Delaware Fayette Franklin
Fulton Grant Hamilton
Hancock Hendricks Henry
Howard Huntington Jay
Johnson Madison Marion
Miami Monroe Montgomery
Morgan Owen Pulaski
Putnam Randolph rush
Shelby Tippecanoe Tipton
Union Wabash Wayne
Wells white